Terminal Aerodrome Forecast
Issued by NWS

Home | Current Version | Previous Version | Text Only | Print | Product List | Glossary Off
Versions: 1 2 3 4 5 6 7 8 9 10 11 12 13 14 15 16

000
FTUS43 KMPX 172320
TAFAXN
TAF
KAXN 172320Z 1800/1824 28012KT P6SM SKC
     FM180900 28006KT 4SM BR SKC
     FM181500 26006KT P6SM BKN200=

USA.gov is the U.S. government's official web portal to all federal, state and local government web resources and services.